sensor_id;sensor_type;location;lat;lon;timestamp;temperature;humidity
17381;DHT22;8808;52.478;13.378;2023-04-08T00:00:58;6.60;99.90
17381;DHT22;8808;52.478;13.378;2023-04-08T00:03:25;6.60;99.90
17381;DHT22;8808;52.478;13.378;2023-04-08T00:05:52;6.60;99.90
17381;DHT22;8808;52.478;13.378;2023-04-08T00:08:21;6.50;99.90
17381;DHT22;8808;52.478;13.378;2023-04-08T00:10:47;6.60;99.90
17381;DHT22;8808;52.478;13.378;2023-04-08T00:13:14;6.50;99.90
17381;DHT22;8808;52.478;13.378;2023-04-08T00:15:41;6.60;99.90
17381;DHT22;8808;52.478;13.378;2023-04-08T00:18:09;6.60;99.90
17381;DHT22;8808;52.478;13.378;2023-04-08T00:20:35;6.60;99.90
17381;DHT22;8808;52.478;13.378;2023-04-08T00:23:02;6.60;99.90
17381;DHT22;8808;52.478;13.378;2023-04-08T00:25:31;6.70;99.90
17381;DHT22;8808;52.478;13.378;2023-04-08T00:27:58;6.60;99.90
17381;DHT22;8808;52.478;13.378;2023-04-08T00:30:24;6.60;99.90
17381;DHT22;8808;52.478;13.378;2023-04-08T00:32:52;6.60;99.90
17381;DHT22;8808;52.478;13.378;2023-04-08T00:35:19;6.60;99.90
17381;DHT22;8808;52.478;13.378;2023-04-08T00:37:46;6.70;99.90
17381;DHT22;8808;52.478;13.378;2023-04-08T00:40:14;6.70;99.90
17381;DHT22;8808;52.478;13.378;2023-04-08T00:42:42;6.60;99.90
17381;DHT22;8808;52.478;13.378;2023-04-08T00:45:10;6.70;99.90
17381;DHT22;8808;52.478;13.378;2023-04-08T00:47:37;6.60;99.90
17381;DHT22;8808;52.478;13.378;2023-04-08T00:50:07;6.70;99.90
17381;DHT22;8808;52.478;13.378;2023-04-08T00:52:35;6.60;99.90
17381;DHT22;8808;52.478;13.378;2023-04-08T00:55:02;6.60;99.90
17381;DHT22;8808;52.478;13.378;2023-04-08T00:57:29;6.50;99.90
17381;DHT22;8808;52.478;13.378;2023-04-08T00:59:58;6.60;99.90
17381;DHT22;8808;52.478;13.378;2023-04-08T01:02:53;6.60;99.90
17381;DHT22;8808;52.478;13.378;2023-04-08T01:05:29;6.60;99.90
17381;DHT22;8808;52.478;13.378;2023-04-08T01:08:06;6.60;99.90
17381;DHT22;8808;52.478;13.378;2023-04-08T01:10:34;6.60;99.90
17381;DHT22;8808;52.478;13.378;2023-04-08T01:13:04;6.60;99.90
17381;DHT22;8808;52.478;13.378;2023-04-08T01:15:36;6.60;99.90
17381;DHT22;8808;52.478;13.378;2023-04-08T01:18:07;6.60;99.90
17381;DHT22;8808;52.478;13.378;2023-04-08T01:20:35;6.60;99.90
17381;DHT22;8808;52.478;13.378;2023-04-08T01:23:09;6.70;99.90
17381;DHT22;8808;52.478;13.378;2023-04-08T01:25:38;6.70;99.90
17381;DHT22;8808;52.478;13.378;2023-04-08T01:28:10;6.60;99.90
17381;DHT22;8808;52.478;13.378;2023-04-08T01:30:39;6.60;99.90
17381;DHT22;8808;52.478;13.378;2023-04-08T01:33:06;6.70;99.90
17381;DHT22;8808;52.478;13.378;2023-04-08T01:35:36;6.60;99.90
17381;DHT22;8808;52.478;13.378;2023-04-08T01:38:06;6.60;99.90
17381;DHT22;8808;52.478;13.378;2023-04-08T01:40:37;6.60;99.90
17381;DHT22;8808;52.478;13.378;2023-04-08T01:43:07;6.70;99.90
17381;DHT22;8808;52.478;13.378;2023-04-08T01:45:34;6.60;99.90
17381;DHT22;8808;52.478;13.378;2023-04-08T01:48:01;6.70;99.90
17381;DHT22;8808;52.478;13.378;2023-04-08T01:50:30;6.60;99.90
17381;DHT22;8808;52.478;13.378;2023-04-08T01:52:58;6.60;99.90
17381;DHT22;8808;52.478;13.378;2023-04-08T01:55:26;6.60;99.90
17381;DHT22;8808;52.478;13.378;2023-04-08T01:57:55;6.70;99.90
17381;DHT22;8808;52.478;13.378;2023-04-08T02:00:28;6.70;99.90
17381;DHT22;8808;52.478;13.378;2023-04-08T02:02:56;6.60;99.90
17381;DHT22;8808;52.478;13.378;2023-04-08T02:05:24;6.70;99.90
17381;DHT22;8808;52.478;13.378;2023-04-08T02:07:51;6.60;99.90
17381;DHT22;8808;52.478;13.378;2023-04-08T02:10:18;6.60;99.90
17381;DHT22;8808;52.478;13.378;2023-04-08T02:12:45;6.70;99.90
17381;DHT22;8808;52.478;13.378;2023-04-08T02:15:13;6.60;99.90
17381;DHT22;8808;52.478;13.378;2023-04-08T02:17:44;6.70;99.90
17381;DHT22;8808;52.478;13.378;2023-04-08T02:20:16;6.60;99.90
17381;DHT22;8808;52.478;13.378;2023-04-08T02:22:47;6.70;99.90
17381;DHT22;8808;52.478;13.378;2023-04-08T02:25:16;6.60;99.90
17381;DHT22;8808;52.478;13.378;2023-04-08T02:27:48;6.60;99.90
17381;DHT22;8808;52.478;13.378;2023-04-08T02:30:15;6.70;99.90
17381;DHT22;8808;52.478;13.378;2023-04-08T02:32:45;6.70;99.90
17381;DHT22;8808;52.478;13.378;2023-04-08T02:35:13;6.70;99.90
17381;DHT22;8808;52.478;13.378;2023-04-08T02:37:41;6.60;99.90
17381;DHT22;8808;52.478;13.378;2023-04-08T02:40:27;6.70;99.90
17381;DHT22;8808;52.478;13.378;2023-04-08T02:42:55;6.70;99.90
17381;DHT22;8808;52.478;13.378;2023-04-08T02:45:22;6.60;99.90
17381;DHT22;8808;52.478;13.378;2023-04-08T02:47:52;6.60;99.90
17381;DHT22;8808;52.478;13.378;2023-04-08T02:50:19;6.60;99.90
17381;DHT22;8808;52.478;13.378;2023-04-08T02:52:46;6.60;99.90
17381;DHT22;8808;52.478;13.378;2023-04-08T02:55:13;6.70;99.90
17381;DHT22;8808;52.478;13.378;2023-04-08T02:57:41;6.70;99.90
17381;DHT22;8808;52.478;13.378;2023-04-08T03:00:09;6.60;99.90
17381;DHT22;8808;52.478;13.378;2023-04-08T03:02:36;6.60;99.90
17381;DHT22;8808;52.478;13.378;2023-04-08T03:05:05;6.70;99.90
17381;DHT22;8808;52.478;13.378;2023-04-08T03:07:33;6.70;99.90
17381;DHT22;8808;52.478;13.378;2023-04-08T03:10:00;6.70;99.90
17381;DHT22;8808;52.478;13.378;2023-04-08T03:12:26;6.70;99.90
17381;DHT22;8808;52.478;13.378;2023-04-08T03:14:54;6.70;99.90
17381;DHT22;8808;52.478;13.378;2023-04-08T03:17:21;6.70;99.90
17381;DHT22;8808;52.478;13.378;2023-04-08T03:19:47;6.70;99.90
17381;DHT22;8808;52.478;13.378;2023-04-08T03:22:16;6.70;99.90
17381;DHT22;8808;52.478;13.378;2023-04-08T03:24:43;6.70;99.90
17381;DHT22;8808;52.478;13.378;2023-04-08T03:27:10;6.70;99.90
17381;DHT22;8808;52.478;13.378;2023-04-08T03:29:38;6.70;99.90
17381;DHT22;8808;52.478;13.378;2023-04-08T03:32:05;6.70;99.90
17381;DHT22;8808;52.478;13.378;2023-04-08T03:34:33;6.70;99.90
17381;DHT22;8808;52.478;13.378;2023-04-08T03:37:00;6.70;99.90
17381;DHT22;8808;52.478;13.378;2023-04-08T03:39:28;6.60;99.90
17381;DHT22;8808;52.478;13.378;2023-04-08T03:41:55;6.70;99.90
17381;DHT22;8808;52.478;13.378;2023-04-08T03:44:24;6.70;99.90
17381;DHT22;8808;52.478;13.378;2023-04-08T03:46:51;6.70;99.90
17381;DHT22;8808;52.478;13.378;2023-04-08T03:49:18;6.60;99.90
17381;DHT22;8808;52.478;13.378;2023-04-08T03:51:45;6.70;99.90
17381;DHT22;8808;52.478;13.378;2023-04-08T03:54:12;6.60;99.90
17381;DHT22;8808;52.478;13.378;2023-04-08T03:56:40;6.70;99.90
17381;DHT22;8808;52.478;13.378;2023-04-08T03:59:07;6.60;99.90
17381;DHT22;8808;52.478;13.378;2023-04-08T04:01:34;6.70;99.90
17381;DHT22;8808;52.478;13.378;2023-04-08T04:04:01;6.70;99.90
17381;DHT22;8808;52.478;13.378;2023-04-08T04:06:28;6.70;99.90
17381;DHT22;8808;52.478;13.378;2023-04-08T04:08:55;6.60;99.90
17381;DHT22;8808;52.478;13.378;2023-04-08T04:11:22;6.60;99.90
17381;DHT22;8808;52.478;13.378;2023-04-08T04:13:51;6.60;99.90
17381;DHT22;8808;52.478;13.378;2023-04-08T04:16:17;6.70;99.90
17381;DHT22;8808;52.478;13.378;2023-04-08T04:18:44;6.70;99.90
17381;DHT22;8808;52.478;13.378;2023-04-08T04:21:11;6.70;99.90
17381;DHT22;8808;52.478;13.378;2023-04-08T04:23:38;6.70;99.90
17381;DHT22;8808;52.478;13.378;2023-04-08T04:26:07;6.60;99.90
17381;DHT22;8808;52.478;13.378;2023-04-08T04:28:34;6.70;99.90
17381;DHT22;8808;52.478;13.378;2023-04-08T04:31:03;6.80;99.90
17381;DHT22;8808;52.478;13.378;2023-04-08T04:33:30;6.70;99.90
17381;DHT22;8808;52.478;13.378;2023-04-08T04:35:57;6.70;99.90
17381;DHT22;8808;52.478;13.378;2023-04-08T04:38:24;6.80;99.90
17381;DHT22;8808;52.478;13.378;2023-04-08T04:40:51;6.70;99.90
17381;DHT22;8808;52.478;13.378;2023-04-08T04:43:18;6.70;99.90
17381;DHT22;8808;52.478;13.378;2023-04-08T04:45:45;6.60;99.90
17381;DHT22;8808;52.478;13.378;2023-04-08T04:48:14;6.70;99.90
17381;DHT22;8808;52.478;13.378;2023-04-08T04:50:41;6.60;99.90
17381;DHT22;8808;52.478;13.378;2023-04-08T04:53:08;6.60;99.90
17381;DHT22;8808;52.478;13.378;2023-04-08T04:55:35;6.60;99.90
17381;DHT22;8808;52.478;13.378;2023-04-08T04:58:02;6.60;99.90
17381;DHT22;8808;52.478;13.378;2023-04-08T05:00:29;6.70;99.90
17381;DHT22;8808;52.478;13.378;2023-04-08T05:02:55;6.70;99.90
17381;DHT22;8808;52.478;13.378;2023-04-08T05:05:24;6.70;99.90
17381;DHT22;8808;52.478;13.378;2023-04-08T05:07:51;6.70;99.90
17381;DHT22;8808;52.478;13.378;2023-04-08T05:10:18;6.70;99.90
17381;DHT22;8808;52.478;13.378;2023-04-08T05:12:45;6.70;99.90
17381;DHT22;8808;52.478;13.378;2023-04-08T05:15:13;6.70;99.90
17381;DHT22;8808;52.478;13.378;2023-04-08T05:17:40;6.60;99.90
17381;DHT22;8808;52.478;13.378;2023-04-08T05:20:08;6.70;99.90
17381;DHT22;8808;52.478;13.378;2023-04-08T05:22:36;6.70;99.90
17381;DHT22;8808;52.478;13.378;2023-04-08T05:25:03;6.70;99.90
17381;DHT22;8808;52.478;13.378;2023-04-08T05:27:31;6.70;99.90
17381;DHT22;8808;52.478;13.378;2023-04-08T05:29:57;6.70;99.90
17381;DHT22;8808;52.478;13.378;2023-04-08T05:32:24;6.70;99.90
17381;DHT22;8808;52.478;13.378;2023-04-08T05:34:51;6.60;99.90
17381;DHT22;8808;52.478;13.378;2023-04-08T05:37:18;6.70;99.90
17381;DHT22;8808;52.478;13.378;2023-04-08T05:39:47;6.60;99.90
17381;DHT22;8808;52.478;13.378;2023-04-08T05:42:14;6.80;99.90
17381;DHT22;8808;52.478;13.378;2023-04-08T05:44:41;6.90;99.90
17381;DHT22;8808;52.478;13.378;2023-04-08T05:47:08;6.80;99.90
17381;DHT22;8808;52.478;13.378;2023-04-08T05:49:35;6.80;99.90
17381;DHT22;8808;52.478;13.378;2023-04-08T05:52:02;6.90;99.90
17381;DHT22;8808;52.478;13.378;2023-04-08T05:54:29;6.90;99.90
17381;DHT22;8808;52.478;13.378;2023-04-08T05:56:57;6.80;99.90
17381;DHT22;8808;52.478;13.378;2023-04-08T05:59:24;6.80;99.90
17381;DHT22;8808;52.478;13.378;2023-04-08T06:01:51;6.90;99.90
17381;DHT22;8808;52.478;13.378;2023-04-08T06:04:19;6.90;99.90
17381;DHT22;8808;52.478;13.378;2023-04-08T06:06:46;7.00;99.90
17381;DHT22;8808;52.478;13.378;2023-04-08T06:09:13;7.00;99.90
17381;DHT22;8808;52.478;13.378;2023-04-08T06:11:40;7.00;99.90
17381;DHT22;8808;52.478;13.378;2023-04-08T06:14:08;6.90;99.90
17381;DHT22;8808;52.478;13.378;2023-04-08T06:16:35;7.00;99.90
17381;DHT22;8808;52.478;13.378;2023-04-08T06:19:02;7.10;99.90
17381;DHT22;8808;52.478;13.378;2023-04-08T06:21:29;7.20;99.90
17381;DHT22;8808;52.478;13.378;2023-04-08T06:23:56;7.20;99.90
17381;DHT22;8808;52.478;13.378;2023-04-08T06:26:23;7.20;99.90
17381;DHT22;8808;52.478;13.378;2023-04-08T06:28:50;7.30;99.90
17381;DHT22;8808;52.478;13.378;2023-04-08T06:31:19;7.40;99.90
17381;DHT22;8808;52.478;13.378;2023-04-08T06:33:46;7.40;99.90
17381;DHT22;8808;52.478;13.378;2023-04-08T06:36:13;7.50;99.90
17381;DHT22;8808;52.478;13.378;2023-04-08T06:38:40;7.50;99.90
17381;DHT22;8808;52.478;13.378;2023-04-08T06:41:08;7.20;99.90
17381;DHT22;8808;52.478;13.378;2023-04-08T06:43:35;7.50;99.90
17381;DHT22;8808;52.478;13.378;2023-04-08T06:46:02;7.50;99.90
17381;DHT22;8808;52.478;13.378;2023-04-08T06:48:31;7.60;99.90
17381;DHT22;8808;52.478;13.378;2023-04-08T06:50:58;7.80;99.90
17381;DHT22;8808;52.478;13.378;2023-04-08T06:53:26;8.10;99.90
17381;DHT22;8808;52.478;13.378;2023-04-08T06:55:54;8.50;99.90
17381;DHT22;8808;52.478;13.378;2023-04-08T06:58:21;8.50;99.90
17381;DHT22;8808;52.478;13.378;2023-04-08T07:00:48;8.10;99.90
17381;DHT22;8808;52.478;13.378;2023-04-08T07:03:15;7.90;99.90
17381;DHT22;8808;52.478;13.378;2023-04-08T07:05:43;7.80;99.90
17381;DHT22;8808;52.478;13.378;2023-04-08T07:08:10;7.70;99.90
17381;DHT22;8808;52.478;13.378;2023-04-08T07:10:37;7.70;99.90
17381;DHT22;8808;52.478;13.378;2023-04-08T07:13:04;7.70;99.90
17381;DHT22;8808;52.478;13.378;2023-04-08T07:15:31;7.80;99.90
17381;DHT22;8808;52.478;13.378;2023-04-08T07:17:58;8.10;99.90
17381;DHT22;8808;52.478;13.378;2023-04-08T07:20:25;7.90;99.90
17381;DHT22;8808;52.478;13.378;2023-04-08T07:22:53;8.00;99.90
17381;DHT22;8808;52.478;13.378;2023-04-08T07:25:20;8.10;99.90
17381;DHT22;8808;52.478;13.378;2023-04-08T07:27:47;7.90;99.90
17381;DHT22;8808;52.478;13.378;2023-04-08T07:30:14;8.00;99.90
17381;DHT22;8808;52.478;13.378;2023-04-08T07:32:41;8.10;99.90
17381;DHT22;8808;52.478;13.378;2023-04-08T07:35:08;8.20;99.90
17381;DHT22;8808;52.478;13.378;2023-04-08T07:37:35;8.20;99.90
17381;DHT22;8808;52.478;13.378;2023-04-08T07:40:05;8.20;99.90
17381;DHT22;8808;52.478;13.378;2023-04-08T07:42:32;8.10;99.90
17381;DHT22;8808;52.478;13.378;2023-04-08T07:44:59;8.20;99.90
17381;DHT22;8808;52.478;13.378;2023-04-08T07:47:26;8.10;99.90
17381;DHT22;8808;52.478;13.378;2023-04-08T07:49:53;8.20;99.90
17381;DHT22;8808;52.478;13.378;2023-04-08T07:52:20;8.10;99.90
17381;DHT22;8808;52.478;13.378;2023-04-08T07:54:47;8.10;99.90
17381;DHT22;8808;52.478;13.378;2023-04-08T07:57:15;8.10;99.90
17381;DHT22;8808;52.478;13.378;2023-04-08T07:59:42;8.10;99.90
17381;DHT22;8808;52.478;13.378;2023-04-08T08:02:09;8.20;99.90
17381;DHT22;8808;52.478;13.378;2023-04-08T08:04:36;8.10;99.90
17381;DHT22;8808;52.478;13.378;2023-04-08T08:07:03;8.30;99.90
17381;DHT22;8808;52.478;13.378;2023-04-08T08:09:30;8.40;99.90
17381;DHT22;8808;52.478;13.378;2023-04-08T08:11:57;8.50;99.90
17381;DHT22;8808;52.478;13.378;2023-04-08T08:14:26;8.50;99.90
17381;DHT22;8808;52.478;13.378;2023-04-08T08:16:53;8.60;99.90
17381;DHT22;8808;52.478;13.378;2023-04-08T08:19:20;8.50;99.90
17381;DHT22;8808;52.478;13.378;2023-04-08T08:21:47;8.60;99.90
17381;DHT22;8808;52.478;13.378;2023-04-08T08:24:15;8.60;99.90
17381;DHT22;8808;52.478;13.378;2023-04-08T08:26:42;8.60;99.90
17381;DHT22;8808;52.478;13.378;2023-04-08T08:29:11;8.60;99.90
17381;DHT22;8808;52.478;13.378;2023-04-08T08:31:39;8.70;99.90
17381;DHT22;8808;52.478;13.378;2023-04-08T08:34:07;8.50;99.90
17381;DHT22;8808;52.478;13.378;2023-04-08T08:36:33;8.50;99.90
17381;DHT22;8808;52.478;13.378;2023-04-08T08:39:00;8.60;99.90
17381;DHT22;8808;52.478;13.378;2023-04-08T08:41:32;8.70;99.90
17381;DHT22;8808;52.478;13.378;2023-04-08T08:43:59;8.70;99.90
17381;DHT22;8808;52.478;13.378;2023-04-08T08:46:27;8.70;99.90
17381;DHT22;8808;52.478;13.378;2023-04-08T08:48:56;8.60;99.90
17381;DHT22;8808;52.478;13.378;2023-04-08T08:51:23;8.60;99.90
17381;DHT22;8808;52.478;13.378;2023-04-08T08:53:50;8.70;99.90
17381;DHT22;8808;52.478;13.378;2023-04-08T08:56:18;8.80;99.90
17381;DHT22;8808;52.478;13.378;2023-04-08T08:58:46;8.90;99.90
17381;DHT22;8808;52.478;13.378;2023-04-08T09:01:32;9.10;99.90
17381;DHT22;8808;52.478;13.378;2023-04-08T09:04:09;9.20;99.90
17381;DHT22;8808;52.478;13.378;2023-04-08T09:06:36;9.30;99.90
17381;DHT22;8808;52.478;13.378;2023-04-08T09:09:03;9.20;99.90
17381;DHT22;8808;52.478;13.378;2023-04-08T09:11:35;9.40;99.90
17381;DHT22;8808;52.478;13.378;2023-04-08T09:14:03;9.30;99.90
17381;DHT22;8808;52.478;13.378;2023-04-08T09:16:31;9.20;99.90
17381;DHT22;8808;52.478;13.378;2023-04-08T09:19:10;9.30;99.90
17381;DHT22;8808;52.478;13.378;2023-04-08T09:21:37;9.40;99.90
17381;DHT22;8808;52.478;13.378;2023-04-08T09:24:06;9.20;99.90
17381;DHT22;8808;52.478;13.378;2023-04-08T09:26:33;9.20;99.90
17381;DHT22;8808;52.478;13.378;2023-04-08T09:29:03;9.20;99.90
17381;DHT22;8808;52.478;13.378;2023-04-08T09:31:31;9.20;99.90
17381;DHT22;8808;52.478;13.378;2023-04-08T09:33:59;9.20;99.90
17381;DHT22;8808;52.478;13.378;2023-04-08T09:36:28;9.10;99.90
17381;DHT22;8808;52.478;13.378;2023-04-08T09:38:55;9.30;99.90
17381;DHT22;8808;52.478;13.378;2023-04-08T09:41:25;9.20;99.90
17381;DHT22;8808;52.478;13.378;2023-04-08T09:43:54;9.30;99.90
17381;DHT22;8808;52.478;13.378;2023-04-08T09:46:26;9.20;99.90
17381;DHT22;8808;52.478;13.378;2023-04-08T09:49:00;9.10;99.90
17381;DHT22;8808;52.478;13.378;2023-04-08T09:51:37;9.20;99.90
17381;DHT22;8808;52.478;13.378;2023-04-08T09:54:12;9.10;99.90
17381;DHT22;8808;52.478;13.378;2023-04-08T09:56:46;9.20;99.90
17381;DHT22;8808;52.478;13.378;2023-04-08T09:59:16;9.20;99.90
17381;DHT22;8808;52.478;13.378;2023-04-08T10:01:51;9.30;99.90
17381;DHT22;8808;52.478;13.378;2023-04-08T10:04:22;9.60;99.90
17381;DHT22;8808;52.478;13.378;2023-04-08T10:06:56;9.50;99.90
17381;DHT22;8808;52.478;13.378;2023-04-08T10:09:23;9.80;99.90
17381;DHT22;8808;52.478;13.378;2023-04-08T10:11:50;10.50;99.90
17381;DHT22;8808;52.478;13.378;2023-04-08T10:14:18;10.80;99.90
17381;DHT22;8808;52.478;13.378;2023-04-08T10:16:46;10.70;99.90
17381;DHT22;8808;52.478;13.378;2023-04-08T10:19:36;10.50;99.90
17381;DHT22;8808;52.478;13.378;2023-04-08T10:22:45;10.10;99.90
17381;DHT22;8808;52.478;13.378;2023-04-08T10:25:30;10.30;99.90
17381;DHT22;8808;52.478;13.378;2023-04-08T10:27:57;10.10;99.90
17381;DHT22;8808;52.478;13.378;2023-04-08T10:30:41;10.20;99.90
17381;DHT22;8808;52.478;13.378;2023-04-08T10:33:12;10.40;99.90
17381;DHT22;8808;52.478;13.378;2023-04-08T10:35:42;10.40;99.90
17381;DHT22;8808;52.478;13.378;2023-04-08T10:38:12;10.50;99.90
17381;DHT22;8808;52.478;13.378;2023-04-08T10:40:40;10.40;99.90
17381;DHT22;8808;52.478;13.378;2023-04-08T10:43:08;10.50;99.90
17381;DHT22;8808;52.478;13.378;2023-04-08T10:45:36;10.50;99.90
17381;DHT22;8808;52.478;13.378;2023-04-08T10:48:13;11.00;99.90
17381;DHT22;8808;52.478;13.378;2023-04-08T10:50:41;10.80;99.90
17381;DHT22;8808;52.478;13.378;2023-04-08T10:53:08;10.70;99.90
17381;DHT22;8808;52.478;13.378;2023-04-08T10:55:37;10.60;99.90
17381;DHT22;8808;52.478;13.378;2023-04-08T10:58:08;10.70;99.90
17381;DHT22;8808;52.478;13.378;2023-04-08T11:00:37;10.60;99.90
17381;DHT22;8808;52.478;13.378;2023-04-08T11:03:05;10.80;99.90
17381;DHT22;8808;52.478;13.378;2023-04-08T11:05:33;10.90;99.90
17381;DHT22;8808;52.478;13.378;2023-04-08T11:08:01;10.80;99.90
17381;DHT22;8808;52.478;13.378;2023-04-08T11:10:30;10.80;99.90
17381;DHT22;8808;52.478;13.378;2023-04-08T11:12:58;10.70;99.90
17381;DHT22;8808;52.478;13.378;2023-04-08T11:15:28;10.50;99.90
17381;DHT22;8808;52.478;13.378;2023-04-08T11:17:55;10.50;99.90
17381;DHT22;8808;52.478;13.378;2023-04-08T11:20:24;10.60;99.90
17381;DHT22;8808;52.478;13.378;2023-04-08T11:22:51;10.60;99.90
17381;DHT22;8808;52.478;13.378;2023-04-08T11:25:18;10.60;99.90
17381;DHT22;8808;52.478;13.378;2023-04-08T11:27:46;10.60;99.90
17381;DHT22;8808;52.478;13.378;2023-04-08T11:30:16;10.40;99.90
17381;DHT22;8808;52.478;13.378;2023-04-08T11:32:43;10.50;99.90
17381;DHT22;8808;52.478;13.378;2023-04-08T11:35:10;10.60;99.90
17381;DHT22;8808;52.478;13.378;2023-04-08T11:37:37;10.70;99.90
17381;DHT22;8808;52.478;13.378;2023-04-08T11:40:09;10.60;99.90
17381;DHT22;8808;52.478;13.378;2023-04-08T11:42:38;10.70;99.90
17381;DHT22;8808;52.478;13.378;2023-04-08T11:45:11;10.70;99.90
17381;DHT22;8808;52.478;13.378;2023-04-08T11:47:41;10.80;99.90
17381;DHT22;8808;52.478;13.378;2023-04-08T11:50:08;10.70;99.90
17381;DHT22;8808;52.478;13.378;2023-04-08T11:52:42;10.70;99.90
17381;DHT22;8808;52.478;13.378;2023-04-08T11:55:10;10.80;99.90
17381;DHT22;8808;52.478;13.378;2023-04-08T11:57:37;10.80;99.90
17381;DHT22;8808;52.478;13.378;2023-04-08T12:00:05;10.80;99.90
17381;DHT22;8808;52.478;13.378;2023-04-08T12:02:32;10.90;99.90
17381;DHT22;8808;52.478;13.378;2023-04-08T12:05:00;11.00;99.90
17381;DHT22;8808;52.478;13.378;2023-04-08T12:07:28;11.30;99.90
17381;DHT22;8808;52.478;13.378;2023-04-08T12:09:55;11.50;99.90
17381;DHT22;8808;52.478;13.378;2023-04-08T12:12:21;11.60;99.90
17381;DHT22;8808;52.478;13.378;2023-04-08T12:14:48;12.10;99.90
17381;DHT22;8808;52.478;13.378;2023-04-08T12:17:15;12.10;99.90
17381;DHT22;8808;52.478;13.378;2023-04-08T12:19:42;11.80;99.90
17381;DHT22;8808;52.478;13.378;2023-04-08T12:22:11;12.00;99.90
17381;DHT22;8808;52.478;13.378;2023-04-08T12:24:38;12.10;99.90
17381;DHT22;8808;52.478;13.378;2023-04-08T12:27:04;11.90;99.90
17381;DHT22;8808;52.478;13.378;2023-04-08T12:29:32;11.90;99.90
17381;DHT22;8808;52.478;13.378;2023-04-08T12:31:58;12.00;99.90
17381;DHT22;8808;52.478;13.378;2023-04-08T12:34:26;12.00;99.90
17381;DHT22;8808;52.478;13.378;2023-04-08T12:36:54;12.10;99.90
17381;DHT22;8808;52.478;13.378;2023-04-08T12:41:50;12.10;99.90
17381;DHT22;8808;52.478;13.378;2023-04-08T12:44:17;12.10;99.90
17381;DHT22;8808;52.478;13.378;2023-04-08T12:46:44;12.30;99.90
17381;DHT22;8808;52.478;13.378;2023-04-08T12:49:11;12.30;99.90
17381;DHT22;8808;52.478;13.378;2023-04-08T12:51:38;12.40;99.90
17381;DHT22;8808;52.478;13.378;2023-04-08T12:54:05;12.10;99.90
17381;DHT22;8808;52.478;13.378;2023-04-08T12:56:34;12.10;99.90
17381;DHT22;8808;52.478;13.378;2023-04-08T12:59:01;12.00;99.90
17381;DHT22;8808;52.478;13.378;2023-04-08T13:01:28;12.50;99.90
17381;DHT22;8808;52.478;13.378;2023-04-08T13:03:55;13.00;99.90
17381;DHT22;8808;52.478;13.378;2023-04-08T13:06:22;12.80;99.90
17381;DHT22;8808;52.478;13.378;2023-04-08T13:08:49;12.80;99.90
17381;DHT22;8808;52.478;13.378;2023-04-08T13:11:16;12.90;99.90
17381;DHT22;8808;52.478;13.378;2023-04-08T13:13:44;12.80;99.90
17381;DHT22;8808;52.478;13.378;2023-04-08T13:16:12;13.10;99.90
17381;DHT22;8808;52.478;13.378;2023-04-08T13:18:39;13.40;99.90
17381;DHT22;8808;52.478;13.378;2023-04-08T13:21:07;13.60;99.90
17381;DHT22;8808;52.478;13.378;2023-04-08T13:23:34;13.50;99.90
17381;DHT22;8808;52.478;13.378;2023-04-08T13:26:01;13.60;99.90
17381;DHT22;8808;52.478;13.378;2023-04-08T13:28:28;13.30;99.90
17381;DHT22;8808;52.478;13.378;2023-04-08T13:30:56;13.50;99.90
17381;DHT22;8808;52.478;13.378;2023-04-08T13:33:23;13.50;99.90
17381;DHT22;8808;52.478;13.378;2023-04-08T13:35:50;13.40;99.90
17381;DHT22;8808;52.478;13.378;2023-04-08T13:38:17;13.10;99.90
17381;DHT22;8808;52.478;13.378;2023-04-08T13:40:44;13.20;99.90
17381;DHT22;8808;52.478;13.378;2023-04-08T13:43:12;13.70;99.90
17381;DHT22;8808;52.478;13.378;2023-04-08T13:45:39;13.30;99.90
17381;DHT22;8808;52.478;13.378;2023-04-08T13:48:07;13.20;99.90
17381;DHT22;8808;52.478;13.378;2023-04-08T13:50:34;13.00;99.90
17381;DHT22;8808;52.478;13.378;2023-04-08T13:53:01;12.80;99.90
17381;DHT22;8808;52.478;13.378;2023-04-08T13:55:28;12.70;99.90
17381;DHT22;8808;52.478;13.378;2023-04-08T13:57:55;12.50;99.90
17381;DHT22;8808;52.478;13.378;2023-04-08T14:00:22;12.70;99.90
17381;DHT22;8808;52.478;13.378;2023-04-08T14:02:49;12.60;99.90
17381;DHT22;8808;52.478;13.378;2023-04-08T14:05:18;12.90;99.90
17381;DHT22;8808;52.478;13.378;2023-04-08T14:07:45;13.10;99.90
17381;DHT22;8808;52.478;13.378;2023-04-08T14:10:12;13.30;99.90
17381;DHT22;8808;52.478;13.378;2023-04-08T14:12:40;13.30;99.90
17381;DHT22;8808;52.478;13.378;2023-04-08T14:15:08;13.60;99.90
17381;DHT22;8808;52.478;13.378;2023-04-08T14:17:35;13.30;99.90
17381;DHT22;8808;52.478;13.378;2023-04-08T14:20:03;13.20;99.90
17381;DHT22;8808;52.478;13.378;2023-04-08T14:22:32;13.20;99.90
17381;DHT22;8808;52.478;13.378;2023-04-08T14:24:59;13.00;99.90
17381;DHT22;8808;52.478;13.378;2023-04-08T14:27:26;13.00;99.90
17381;DHT22;8808;52.478;13.378;2023-04-08T14:29:53;13.10;99.90
17381;DHT22;8808;52.478;13.378;2023-04-08T14:32:20;13.00;99.90
17381;DHT22;8808;52.478;13.378;2023-04-08T14:34:47;12.60;99.90
17381;DHT22;8808;52.478;13.378;2023-04-08T14:37:14;13.00;99.90
17381;DHT22;8808;52.478;13.378;2023-04-08T14:39:43;13.00;99.90
17381;DHT22;8808;52.478;13.378;2023-04-08T14:42:11;12.80;99.90
17381;DHT22;8808;52.478;13.378;2023-04-08T14:44:40;12.90;99.90
17381;DHT22;8808;52.478;13.378;2023-04-08T14:47:07;12.70;99.90
17381;DHT22;8808;52.478;13.378;2023-04-08T14:49:35;13.00;99.90
17381;DHT22;8808;52.478;13.378;2023-04-08T14:52:01;13.00;99.90
17381;DHT22;8808;52.478;13.378;2023-04-08T14:54:28;13.10;99.90
17381;DHT22;8808;52.478;13.378;2023-04-08T14:56:57;13.30;99.90
17381;DHT22;8808;52.478;13.378;2023-04-08T14:59:24;13.30;99.90
17381;DHT22;8808;52.478;13.378;2023-04-08T15:01:51;12.70;99.90
17381;DHT22;8808;52.478;13.378;2023-04-08T15:04:18;13.00;99.90
17381;DHT22;8808;52.478;13.378;2023-04-08T15:06:45;13.00;99.90
17381;DHT22;8808;52.478;13.378;2023-04-08T15:09:12;12.90;99.90
17381;DHT22;8808;52.478;13.378;2023-04-08T15:11:39;12.90;99.90
17381;DHT22;8808;52.478;13.378;2023-04-08T15:14:07;12.70;99.90
17381;DHT22;8808;52.478;13.378;2023-04-08T15:23:52;23.20;73.40
17381;DHT22;8808;52.478;13.378;2023-04-08T15:26:19;15.00;83.90
17381;DHT22;8808;52.478;13.378;2023-04-08T15:28:47;13.20;91.80
17381;DHT22;8808;52.478;13.378;2023-04-08T15:31:14;13.00;94.30
17381;DHT22;8808;52.478;13.378;2023-04-08T15:33:41;12.80;95.50
17381;DHT22;8808;52.478;13.378;2023-04-08T15:36:10;12.80;98.50
17381;DHT22;8808;52.478;13.378;2023-04-08T15:38:38;12.80;97.80
17381;DHT22;8808;52.478;13.378;2023-04-08T15:41:14;12.80;98.90
17381;DHT22;8808;52.478;13.378;2023-04-08T15:43:41;12.90;97.70
17381;DHT22;8808;52.478;13.378;2023-04-08T15:46:08;15.50;93.40
17381;DHT22;8808;52.478;13.378;2023-04-08T15:48:35;13.70;93.90
17381;DHT22;8808;52.478;13.378;2023-04-08T15:51:05;13.10;99.50
17381;DHT22;8808;52.478;13.378;2023-04-08T15:53:32;13.00;99.90
17381;DHT22;8808;52.478;13.378;2023-04-08T15:56:00;12.80;98.80